Time;durP1;ratioP1;P1;durP2;ratioP2;P2;SDS_P1;SDS_P2;PMS_P1;PMS_P2;Temp;Humidity;BMP_temperature;BMP_pressure;BME280_temperature;BME280_humidity;BME280_pressure;Samples;Min_cycle;Max_cycle;Signal;HPM_P1;HPM_P2
2022/10/25 00:00:28;;;;;;;7.10;2.17;;;;;;;17.62;53.36;99380.41;5116531;28;20191;-88
2022/10/25 00:02:53;;;;;;;9.57;2.33;;;;;;;17.66;53.26;99376.53;5116416;28;20182;-88
2022/10/25 00:05:19;;;;;;;7.23;2.10;;;;;;;17.65;53.39;99380.16;5098436;28;20666;-88
2022/10/25 00:07:45;;;;;;;9.43;2.50;;;;;;;17.55;54.59;99379.19;5098236;28;20193;-88
2022/10/25 00:10:10;;;;;;;4.53;2.17;;;;;;;17.43;55.04;99376.59;5116564;28;20179;-88
2022/10/25 00:12:45;;;;;;;4.93;2.33;;;;;;;17.38;54.88;99373.44;5098645;28;20179;-88
2022/10/25 00:15:13;;;;;;;6.63;2.07;;;;;;;17.34;55.61;99364.91;5116588;28;20230;-88
2022/10/25 00:17:39;;;;;;;11.27;3.13;;;;;;;17.37;55.51;99362.03;5098167;28;20265;-88
2022/10/25 00:20:05;;;;;;;6.30;2.20;;;;;;;17.35;55.39;99363.94;5116353;28;20174;-87
2022/10/25 00:22:31;;;;;;;5.57;2.70;;;;;;;17.34;55.30;99367.56;5116375;28;20258;-88
2022/10/25 00:24:56;;;;;;;7.50;2.80;;;;;;;17.29;54.97;99366.22;5097991;28;20316;-87
2022/10/25 00:27:21;;;;;;;4.60;2.20;;;;;;;17.20;55.72;99351.84;5116183;28;20164;-88
2022/10/25 00:29:47;;;;;;;4.87;2.40;;;;;;;17.10;56.22;99356.16;5116102;28;20195;-88
2022/10/25 00:32:12;;;;;;;7.43;2.50;;;;;;;17.01;56.67;99362.16;5115904;28;20509;-88
2022/10/25 00:34:41;;;;;;;6.03;2.13;;;;;;;17.01;56.36;99359.50;5097910;28;20226;-88
2022/10/25 00:37:06;;;;;;;4.97;2.27;;;;;;;17.01;55.91;99364.78;5097783;28;20175;-88
2022/10/25 00:39:31;;;;;;;7.23;3.23;;;;;;;17.05;55.51;99353.88;5097832;28;20646;-88
2022/10/25 00:41:57;;;;;;;6.63;2.57;;;;;;;17.13;54.78;99348.84;5097795;28;20167;-88
2022/10/25 00:44:35;;;;;;;5.73;2.03;;;;;;;17.19;54.69;99336.91;5115922;28;20175;-88
2022/10/25 00:47:03;;;;;;;6.37;2.27;;;;;;;17.06;55.63;99341.44;5115839;28;20185;-88
2022/10/25 00:49:32;;;;;;;4.70;1.90;;;;;;;17.00;55.37;99341.94;5097207;28;20202;-88
2022/10/25 00:52:03;;;;;;;7.20;1.93;;;;;;;16.98;55.28;99351.81;5115605;28;20197;-87
2022/10/25 00:54:33;;;;;;;5.70;2.97;;;;;;;17.04;54.82;99349.53;5115758;28;20152;-88
2022/10/25 00:57:10;;;;;;;6.30;2.23;;;;;;;16.93;55.35;99343.34;5115630;28;20537;-88
2022/10/25 00:59:37;;;;;;;5.97;3.00;;;;;;;16.85;55.70;99345.75;5115436;28;20179;-88
2022/10/25 01:02:03;;;;;;;12.70;3.10;;;;;;;16.82;55.96;99340.66;5115310;28;20274;-88
2022/10/25 01:04:31;;;;;;;15.87;3.60;;;;;;;16.70;56.60;99344.22;5115255;28;20178;-88
2022/10/25 01:06:57;;;;;;;10.20;3.90;;;;;;;16.66;56.66;99340.13;5115182;28;20182;-88
2022/10/25 01:09:25;;;;;;;9.17;3.07;;;;;;;16.57;57.14;99341.63;5097121;28;20664;-87
2022/10/25 01:11:51;;;;;;;6.30;2.80;;;;;;;16.52;57.33;99336.69;5115113;28;20624;-88
2022/10/25 01:14:17;;;;;;;7.90;2.73;;;;;;;16.48;57.03;99337.00;5097038;28;20213;-87
2022/10/25 01:17:04;;;;;;;7.03;3.00;;;;;;;16.36;57.48;99346.66;5097016;28;20202;-88
2022/10/25 01:19:43;;;;;;;8.83;3.17;;;;;;;16.24;57.41;99349.38;5115262;28;20243;-87
2022/10/25 01:22:13;;;;;;;9.93;3.17;;;;;;;16.29;56.91;99350.72;5115201;28;20604;-87
2022/10/25 01:24:51;;;;;;;14.40;2.70;;;;;;;16.31;56.72;99348.81;5096955;28;20160;-87
2022/10/25 01:27:41;;;;;;;5.37;2.83;;;;;;;16.30;56.49;99354.22;5096875;28;20266;-87
2022/10/25 01:30:42;;;;;;;12.43;2.70;;;;;;;16.29;56.66;99349.88;5114892;28;20216;-88
2022/10/25 01:33:14;;;;;;;6.70;2.50;;;;;;;16.22;56.38;99341.53;5096784;28;20170;-88
2022/10/25 01:36:17;;;;;;;7.37;2.77;;;;;;;16.22;56.21;99349.47;5096750;28;20166;-88
2022/10/25 01:39:02;;;;;;;5.03;2.37;;;;;;;16.03;56.96;99343.81;5096933;28;20263;-88
2022/10/25 01:41:51;;;;;;;7.73;2.30;;;;;;;15.89;57.37;99343.94;5115111;28;20192;-88
2022/10/25 01:44:42;;;;;;;7.80;2.37;;;;;;;15.94;57.39;99340.03;5114749;28;20178;-88
2022/10/25 01:47:19;;;;;;;11.30;2.47;;;;;;;15.86;57.73;99341.50;5114726;28;20153;-88
2022/10/25 01:49:56;;;;;;;8.67;2.57;;;;;;;15.79;58.30;99338.47;5096863;28;20199;-87
2022/10/25 01:52:23;;;;;;;6.40;1.97;;;;;;;15.77;58.56;99339.53;5096278;28;20283;-88
2022/10/25 01:54:50;;;;;;;10.83;2.20;;;;;;;15.78;58.81;99330.63;5096331;28;20260;-88
2022/10/25 01:57:33;;;;;;;6.47;2.27;;;;;;;15.73;59.36;99335.41;5114220;28;20178;-88
2022/10/25 02:00:10;;;;;;;6.37;2.47;;;;;;;15.74;59.68;99329.19;5113791;28;20165;-88
2022/10/25 02:02:45;;;;;;;6.00;3.40;;;;;;;15.88;59.32;99324.59;5114447;28;20203;-87
2022/10/25 02:05:26;;;;;;;6.50;2.83;;;;;;;16.11;59.23;99330.03;5114130;28;20161;-88
2022/10/25 02:08:05;;;;;;;15.07;4.00;;;;;;;16.09;59.39;99327.50;5114265;28;20166;-87
2022/10/25 02:10:45;;;;;;;6.83;3.27;;;;;;;15.98;59.56;99330.91;5114295;28;20157;-87
2022/10/25 02:13:35;;;;;;;6.87;2.23;;;;;;;15.84;58.88;99328.41;5096051;28;20608;-87
2022/10/25 02:16:09;;;;;;;10.70;2.30;;;;;;;15.87;58.19;99333.50;5114194;28;20166;-87
2022/10/25 02:18:40;;;;;;;6.60;2.73;;;;;;;15.86;58.21;99330.94;5114132;28;20164;-87
2022/10/25 02:21:06;;;;;;;8.63;3.30;;;;;;;15.81;58.46;99344.50;5114172;28;20209;-87
2022/10/25 02:23:34;;;;;;;8.87;2.77;;;;;;;15.65;58.55;99338.59;5113817;28;20189;-87
2022/10/25 02:26:02;;;;;;;11.77;2.57;;;;;;;15.68;58.25;99340.16;5095855;28;20192;-87
2022/10/25 02:28:31;;;;;;;6.93;2.40;;;;;;;15.69;56.54;99339.22;5113939;28;20299;-87
2022/10/25 02:30:58;;;;;;;10.93;2.50;;;;;;;15.70;55.36;99346.19;5096536;28;20171;-87
2022/10/25 02:33:24;;;;;;;5.33;2.23;;;;;;;15.67;55.41;99341.97;5095707;28;20271;-87
2022/10/25 02:36:23;;;;;;;7.10;3.07;;;;;;;15.65;54.70;99337.72;5095676;28;20676;-87
2022/10/25 02:38:50;;;;;;;6.03;2.17;;;;;;;15.59;54.57;99349.56;5041807;28;20336;-87
2022/10/25 02:41:16;;;;;;;5.57;2.13;;;;;;;15.57;54.37;99337.41;5095634;28;20182;-88
2022/10/25 02:43:42;;;;;;;8.13;2.47;;;;;;;15.59;54.24;99338.19;5113791;28;20254;-87
2022/10/25 02:46:10;;;;;;;6.50;2.53;;;;;;;15.52;54.39;99339.53;5095567;28;20204;-87
2022/10/25 02:48:36;;;;;;;13.13;3.03;;;;;;;15.47;54.58;99344.31;5113658;28;20197;-87
2022/10/25 02:51:03;;;;;;;4.23;1.80;;;;;;;15.42;54.25;99341.09;5113296;28;20206;-89
2022/10/25 02:53:29;;;;;;;8.20;2.70;;;;;;;15.46;54.37;99338.16;5095538;28;20189;-87
2022/10/25 02:56:03;;;;;;;5.60;2.60;;;;;;;15.48;54.54;99338.94;5095758;28;20608;-87
2022/10/25 02:58:31;;;;;;;6.77;2.50;;;;;;;15.40;55.17;99341.22;5113661;28;20183;-87
2022/10/25 03:00:57;;;;;;;11.60;2.90;;;;;;;15.33;56.07;99347.84;5096470;28;20215;-87
2022/10/25 03:03:23;;;;;;;5.60;1.80;;;;;;;15.27;55.92;99343.88;5095433;28;20185;-87
2022/10/25 03:05:48;;;;;;;8.03;2.40;;;;;;;15.26;56.39;99342.16;5095372;28;20636;-87
2022/10/25 03:08:14;;;;;;;6.53;2.87;;;;;;;15.20;56.96;99345.22;5113465;28;20204;-87
2022/10/25 03:10:39;;;;;;;10.80;2.63;;;;;;;15.20;57.42;99344.34;5113689;28;20177;-87
2022/10/25 03:13:05;;;;;;;6.03;3.27;;;;;;;15.29;57.73;99346.38;5117965;28;20176;-87
2022/10/25 03:15:30;;;;;;;6.63;2.80;;;;;;;15.33;58.06;99342.56;5099417;28;20188;-87
2022/10/25 03:17:55;;;;;;;6.93;3.47;;;;;;;15.35;58.04;99341.53;5099340;28;20252;-87
2022/10/25 03:20:21;;;;;;;8.67;3.00;;;;;;;15.31;58.40;99332.13;5117304;28;20171;-87
2022/10/25 03:22:46;;;;;;;6.57;3.43;;;;;;;15.29;58.85;99330.53;5117202;28;20321;-87
2022/10/25 03:25:12;;;;;;;13.13;4.47;;;;;;;15.29;59.44;99334.03;5099240;28;20668;-88
2022/10/25 03:27:37;;;;;;;8.47;3.67;;;;;;;15.35;59.33;99336.25;5099264;28;20202;-87
2022/10/25 03:30:03;;;;;;;10.70;4.47;;;;;;;15.39;59.30;99332.44;5117066;28;20264;-87
2022/10/25 03:32:28;;;;;;;7.00;3.33;;;;;;;15.36;59.85;99337.94;5099062;28;20694;-87
2022/10/25 03:34:54;;;;;;;8.00;3.50;;;;;;;15.29;60.42;99331.38;5099039;28;20219;-87
2022/10/25 03:37:19;;;;;;;11.77;3.13;;;;;;;15.44;60.02;99332.13;5117239;28;20188;-87
2022/10/25 03:39:44;;;;;;;11.90;3.73;;;;;;;15.41;59.93;99334.97;5116888;28;20202;-87
2022/10/25 03:42:10;;;;;;;7.20;3.53;;;;;;;15.38;60.36;99329.94;5117101;28;20637;-87
2022/10/25 03:44:35;;;;;;;8.93;3.43;;;;;;;15.36;60.19;99330.00;5116824;28;20240;-87
2022/10/25 03:47:01;;;;;;;9.13;3.77;;;;;;;15.30;60.26;99343.63;5117046;28;20256;-87
2022/10/25 03:49:26;;;;;;;15.20;4.30;;;;;;;15.30;60.38;99333.06;5098694;28;20684;-87
2022/10/25 03:51:51;;;;;;;12.07;4.03;;;;;;;15.28;60.45;99324.41;5116707;28;20192;-88
2022/10/25 03:54:17;;;;;;;11.83;4.03;;;;;;;15.17;60.36;99326.94;5117120;28;20176;-88
2022/10/25 03:56:42;;;;;;;12.87;3.13;;;;;;;15.11;60.29;99315.97;5116796;28;20175;-87
2022/10/25 03:59:08;;;;;;;11.67;3.47;;;;;;;15.14;60.05;99321.88;5098555;28;20671;-87
2022/10/25 04:01:33;;;;;;;6.90;3.33;;;;;;;15.15;59.34;99323.56;5116502;28;20267;-88
2022/10/25 04:03:59;;;;;;;10.53;4.10;;;;;;;15.08;59.31;99317.00;5098726;28;20180;-87
2022/10/25 04:06:24;;;;;;;8.23;4.37;;;;;;;15.03;59.29;99321.75;5099535;28;20191;-87
2022/10/25 04:08:50;;;;;;;11.83;3.83;;;;;;;15.03;59.47;99319.13;5116287;28;20275;-87
2022/10/25 04:11:15;;;;;;;7.40;3.93;;;;;;;15.00;59.15;99310.56;5116789;28;20195;-87
2022/10/25 04:13:41;;;;;;;9.10;3.60;;;;;;;14.97;59.13;99319.53;5116247;28;20252;-87
2022/10/25 04:16:07;;;;;;;8.87;3.90;;;;;;;15.00;59.17;99311.41;5116743;28;20172;-87
2022/10/25 04:18:33;;;;;;;14.97;4.03;;;;;;;14.92;59.46;99315.50;5116194;28;20289;-87
2022/10/25 04:20:58;;;;;;;6.50;3.10;;;;;;;14.81;60.26;99302.19;5098147;28;20254;-87
2022/10/25 04:23:24;;;;;;;10.07;3.50;;;;;;;14.75;60.51;99306.09;5097407;28;20175;-87
2022/10/25 04:25:49;;;;;;;8.03;3.47;;;;;;;14.75;60.50;99295.53;5116070;28;20663;-88
2022/10/25 04:28:15;;;;;;;10.83;3.97;;;;;;;14.84;60.58;99301.97;5097951;28;20820;-88
2022/10/25 04:30:41;;;;;;;7.47;3.17;;;;;;;14.89;60.49;99299.88;5098018;28;20189;-87
2022/10/25 04:33:07;;;;;;;6.40;3.43;;;;;;;14.76;61.13;99294.56;5097896;28;20179;-88
2022/10/25 04:35:32;;;;;;;10.40;3.43;;;;;;;14.75;61.06;99295.53;5097832;28;20252;-88
2022/10/25 04:37:58;;;;;;;8.13;3.40;;;;;;;14.85;61.04;99298.41;5116335;28;20171;-88
2022/10/25 04:40:24;;;;;;;12.27;3.73;;;;;;;14.86;60.79;99294.81;5097795;28;20183;-88
2022/10/25 04:42:49;;;;;;;5.57;2.60;;;;;;;14.78;60.96;99292.66;5097753;28;20625;-88
2022/10/25 04:45:14;;;;;;;12.90;2.70;;;;;;;14.74;61.17;99293.84;5097668;28;20616;-88
2022/10/25 04:47:40;;;;;;;9.17;2.77;;;;;;;14.78;60.83;99293.53;5097902;28;20215;-89
2022/10/25 04:50:06;;;;;;;3.73;2.33;;;;;;;14.67;61.67;99293.38;5115484;28;20290;-88
2022/10/25 04:52:31;;;;;;;11.03;2.53;;;;;;;14.78;61.50;99293.53;5097455;28;20203;-88
2022/10/25 04:54:57;;;;;;;4.17;2.13;;;;;;;14.86;61.21;99298.28;5097459;28;20182;-88
2022/10/25 04:57:24;;;;;;;14.83;2.37;;;;;;;14.90;61.56;99291.88;5097462;28;20621;-88
2022/10/25 04:59:49;;;;;;;6.30;2.77;;;;;;;14.91;61.93;99295.34;5097393;28;20656;-88
2022/10/25 05:02:15;;;;;;;6.17;3.03;;;;;;;15.01;61.96;99301.69;5097319;28;20180;-88
2022/10/25 05:04:41;;;;;;;5.43;2.37;;;;;;;15.04;62.32;99298.84;5115331;28;20183;-88
2022/10/25 05:07:06;;;;;;;9.27;2.33;;;;;;;14.89;63.05;99303.34;5097244;28;20240;-88
2022/10/25 05:09:32;;;;;;;5.50;2.40;;;;;;;14.85;63.43;99308.97;5115106;28;20672;-88
2022/10/25 05:11:57;;;;;;;12.43;2.37;;;;;;;14.90;63.77;99307.69;5115166;28;20620;-88
2022/10/25 05:14:23;;;;;;;5.83;2.80;;;;;;;14.99;63.95;99306.25;5115102;28;20639;-88
2022/10/25 05:16:48;;;;;;;18.60;2.93;;;;;;;15.05;64.13;99311.94;5097083;28;20278;-88
2022/10/25 05:19:14;;;;;;;9.57;2.17;;;;;;;15.14;63.80;99313.97;5097855;28;20183;-88
2022/10/25 05:21:39;;;;;;;6.47;2.77;;;;;;;15.21;64.06;99309.09;5097022;28;20190;-88
2022/10/25 05:24:04;;;;;;;10.13;2.57;;;;;;;15.24;64.39;99317.66;5114923;28;20183;-88
2022/10/25 05:26:31;;;;;;;9.23;2.77;;;;;;;15.29;64.33;99318.19;5115369;28;20168;-88
2022/10/25 05:28:56;;;;;;;12.30;2.50;;;;;;;15.42;64.50;99312.03;5115012;28;20199;-88
2022/10/25 05:31:24;;;;;;;11.30;3.20;;;;;;;15.54;63.99;99313.88;5114742;28;20183;-88
2022/10/25 05:33:52;;;;;;;6.50;2.77;;;;;;;15.62;64.20;99319.44;5096572;28;20738;-88
2022/10/25 05:36:18;;;;;;;8.73;3.00;;;;;;;15.76;64.11;99325.47;5095883;28;20179;-88
2022/10/25 05:38:44;;;;;;;7.17;2.77;;;;;;;15.89;63.85;99328.09;5096691;28;20173;-88
2022/10/25 05:41:11;;;;;;;9.37;2.30;;;;;;;16.09;63.42;99329.31;5096925;28;20218;-88
2022/10/25 05:43:37;;;;;;;16.03;2.27;;;;;;;16.21;63.06;99334.56;5114743;28;20176;-88
2022/10/25 05:46:04;;;;;;;8.97;2.77;;;;;;;16.36;62.62;99335.22;5114508;28;20179;-88
2022/10/25 05:48:32;;;;;;;13.40;2.90;;;;;;;16.50;61.81;99325.34;5096374;28;20719;-88
2022/10/25 05:51:20;;;;;;;5.93;2.30;;;;;;;16.69;61.58;99337.25;5114268;28;20244;-89
2022/10/25 05:53:50;;;;;;;9.10;2.33;;;;;;;17.02;60.88;99334.72;5097236;28;20169;-90
2022/10/25 05:56:17;;;;;;;7.60;2.90;;;;;;;17.52;59.50;99339.63;5114521;28;20192;-89
2022/10/25 05:58:43;;;;;;;12.60;2.50;;;;;;;17.96;57.69;99343.28;5096224;28;20625;-90
2022/10/25 06:01:11;;;;;;;11.30;2.37;;;;;;;18.43;56.01;99335.00;5096156;28;20208;-90
2022/10/25 06:03:37;;;;;;;9.77;3.20;;;;;;;18.77;54.56;99339.25;5097006;28;20179;-89
2022/10/25 06:06:04;;;;;;;6.83;2.80;;;;;;;19.19;53.19;99337.47;5096154;28;20514;-89
2022/10/25 06:08:30;;;;;;;9.50;2.90;;;;;;;19.79;50.48;99334.03;5114014;28;20291;-89
2022/10/25 06:11:07;;;;;;;12.33;3.50;;;;;;;20.26;49.06;99340.53;5096371;28;20612;-89
2022/10/25 06:13:33;;;;;;;6.80;2.47;;;;;;;20.60;47.64;99338.34;5096662;28;20171;-89
2022/10/25 06:16:02;;;;;;;7.67;2.60;;;;;;;20.60;47.07;99343.66;5095992;28;20188;-89
2022/10/25 06:18:27;;;;;;;10.20;3.20;;;;;;;20.91;46.34;99342.56;5095974;28;20174;-89
2022/10/25 06:20:53;;;;;;;10.03;2.73;;;;;;;21.11;45.55;99343.44;5095909;28;20183;-90
2022/10/25 06:23:18;;;;;;;14.97;3.17;;;;;;;21.32;45.02;99342.28;5096149;28;20261;-90
2022/10/25 06:25:44;;;;;;;14.00;3.50;;;;;;;21.64;44.34;99347.25;5114018;28;20179;-90
2022/10/25 06:28:09;;;;;;;12.03;3.70;;;;;;;21.93;43.97;99349.88;5113672;28;20615;-88
2022/10/25 06:30:35;;;;;;;9.77;3.60;;;;;;;22.07;43.57;99352.03;5096025;28;20186;-88
2022/10/25 06:33:00;;;;;;;14.77;5.20;;;;;;;21.84;43.53;99354.22;5095684;28;20190;-88
2022/10/25 06:35:28;;;;;;;17.13;6.20;;;;;;;21.54;43.97;99351.75;5095743;28;20172;-88
2022/10/25 06:37:57;;;;;;;23.77;6.10;;;;;;;21.27;45.00;99349.88;5095665;28;20648;-88
2022/10/25 06:40:23;;;;;;;10.63;4.27;;;;;;;21.36;45.31;99357.00;5113544;28;20248;-89
2022/10/25 06:42:53;;;;;;;17.70;6.13;;;;;;;21.56;45.00;99356.97;5095946;28;20624;-89
2022/10/25 06:45:18;;;;;;;19.33;7.03;;;;;;;21.84;44.34;99359.53;5095758;28;20180;-89
2022/10/25 06:47:45;;;;;;;17.97;5.40;;;;;;;22.18;43.82;99356.34;5113213;28;20232;-89
2022/10/25 06:50:10;;;;;;;17.67;5.73;;;;;;;22.72;42.22;99355.47;5095735;28;20203;-89
2022/10/25 06:52:36;;;;;;;20.33;7.07;;;;;;;22.93;42.39;99348.00;5095643;28;20199;-89
2022/10/25 06:55:01;;;;;;;19.33;6.80;;;;;;;23.15;41.44;99347.50;5095480;28;20634;-89
2022/10/25 06:57:27;;;;;;;14.10;5.97;;;;;;;23.09;41.47;99343.59;5113324;28;20175;-88
2022/10/25 06:59:52;;;;;;;17.87;5.93;;;;;;;23.41;41.51;99351.09;5095724;28;20263;-89
2022/10/25 07:02:17;;;;;;;15.60;4.30;;;;;;;23.64;41.17;99340.69;5095701;28;20178;-89
2022/10/25 07:04:43;;;;;;;9.93;3.60;;;;;;;23.65;41.28;99343.22;5095346;28;20186;-88
2022/10/25 07:07:09;;;;;;;11.33;3.83;;;;;;;23.78;41.69;99340.94;5113284;28;20195;-89
2022/10/25 07:09:34;;;;;;;14.03;3.90;;;;;;;23.93;41.22;99343.00;5113754;28;20217;-88
2022/10/25 07:12:00;;;;;;;10.80;2.50;;;;;;;24.09;40.94;99348.47;5113273;28;20236;-88
2022/10/25 07:14:25;;;;;;;8.90;3.40;;;;;;;24.28;40.45;99342.88;5095258;28;20179;-88
2022/10/25 07:16:51;;;;;;;9.33;2.40;;;;;;;24.42;40.56;99336.91;5095319;28;20176;-88
2022/10/25 07:19:16;;;;;;;12.37;3.10;;;;;;;24.56;40.51;99336.25;5095180;28;20206;-88
2022/10/25 07:21:41;;;;;;;7.20;2.23;;;;;;;24.69;39.77;99328.56;5095547;28;20179;-88
2022/10/25 07:24:10;;;;;;;12.40;2.33;;;;;;;24.77;40.26;99328.56;5095505;28;20195;-88
2022/10/25 07:26:36;;;;;;;12.90;3.07;;;;;;;24.82;38.86;99328.09;5096000;28;20180;-88
2022/10/25 07:29:03;;;;;;;11.70;3.57;;;;;;;24.86;38.53;99330.31;5113021;28;20203;-89
2022/10/25 07:31:31;;;;;;;7.97;2.40;;;;;;;24.89;39.25;99332.66;5095470;28;20190;-88
2022/10/25 07:33:58;;;;;;;5.53;2.27;;;;;;;24.85;39.00;99325.09;5095069;28;20270;-89
2022/10/25 07:36:25;;;;;;;10.20;3.27;;;;;;;24.77;38.82;99328.56;5095424;28;20261;-89
2022/10/25 07:38:50;;;;;;;17.20;4.40;;;;;;;24.45;39.20;99326.66;5108894;28;20206;-88
2022/10/25 07:41:16;;;;;;;7.53;3.33;;;;;;;24.26;39.91;99324.28;5094097;28;20633;-88
2022/10/25 07:43:41;;;;;;;13.30;4.57;;;;;;;24.04;40.32;99319.47;5094953;28;20249;-88
2022/10/25 07:46:07;;;;;;;15.97;5.03;;;;;;;23.96;39.89;99313.25;5095181;28;20175;-88
2022/10/25 07:48:33;;;;;;;15.87;4.13;;;;;;;23.94;40.40;99318.78;5113163;28;20207;-89
2022/10/25 07:51:09;;;;;;;18.93;4.73;;;;;;;23.96;40.73;99311.41;5112733;28;20180;-89
2022/10/25 07:53:35;;;;;;;10.00;4.20;;;;;;;24.02;41.44;99323.31;5112676;28;20168;-88
2022/10/25 07:56:01;;;;;;;10.80;3.90;;;;;;;24.19;39.97;99323.25;5094803;28;20224;-88
2022/10/25 07:58:27;;;;;;;10.87;3.63;;;;;;;23.89;39.98;99314.91;5114063;28;20580;-89
2022/10/25 08:00:58;;;;;;;18.90;4.77;;;;;;;23.96;40.13;99311.41;5098800;28;20624;-88
2022/10/25 08:03:23;;;;;;;9.73;3.40;;;;;;;24.13;40.14;99312.34;5097964;28;20179;-88
2022/10/25 08:05:49;;;;;;;15.27;4.83;;;;;;;24.26;40.65;99307.38;5098243;28;20171;-88
2022/10/25 08:08:14;;;;;;;15.67;2.80;;;;;;;24.23;40.08;99307.69;5115991;28;20352;-88
2022/10/25 08:10:42;;;;;;;7.73;3.37;;;;;;;24.49;40.05;99303.06;5116121;28;20624;-89
2022/10/25 08:13:07;;;;;;;11.93;2.53;;;;;;;24.70;39.13;99297.25;5116088;28;20258;-89
2022/10/25 08:15:35;;;;;;;7.87;3.20;;;;;;;24.86;39.97;99295.44;5115953;28;20263;-88
2022/10/25 08:18:01;;;;;;;12.90;4.03;;;;;;;24.66;39.04;99303.94;5115311;28;20191;-88
2022/10/25 08:20:28;;;;;;;6.37;2.60;;;;;;;24.61;39.64;99293.69;5115825;28;20176;-88
2022/10/25 08:22:57;;;;;;;8.20;2.70;;;;;;;24.87;39.48;99291.75;5115940;28;20171;-88
2022/10/25 08:25:23;;;;;;;9.07;2.23;;;;;;;25.14;38.94;99289.72;5115732;28;20172;-88
2022/10/25 08:27:49;;;;;;;8.47;2.87;;;;;;;25.27;38.61;99292.72;5115804;28;20171;-88
2022/10/25 08:30:14;;;;;;;7.13;2.17;;;;;;;25.43;38.14;99290.00;5097927;28;20212;-89
2022/10/25 08:32:40;;;;;;;5.03;2.03;;;;;;;25.46;36.88;99284.34;5115681;28;20168;-88
2022/10/25 08:35:06;;;;;;;12.70;2.63;;;;;;;25.72;36.29;99276.88;5115753;28;20183;-89
2022/10/25 08:37:31;;;;;;;7.33;2.33;;;;;;;25.74;36.21;99282.91;5097335;28;20179;-89
2022/10/25 08:39:57;;;;;;;7.10;2.40;;;;;;;25.82;36.15;99282.03;5115726;28;20171;-89
2022/10/25 08:42:42;;;;;;;10.07;2.80;;;;;;;26.17;35.68;99276.22;5115377;28;20534;-89
2022/10/25 08:45:20;;;;;;;9.17;2.40;;;;;;;26.45;35.54;99263.94;5115587;28;20613;-89
2022/10/25 08:47:52;;;;;;;8.70;2.27;;;;;;;26.43;35.20;99259.75;5097954;28;20218;-88
2022/10/25 08:50:21;;;;;;;5.70;2.40;;;;;;;26.39;34.83;99258.44;5097283;28;20268;-89
2022/10/25 08:52:52;;;;;;;10.47;2.63;;;;;;;26.34;35.56;99252.75;5109674;28;20199;-87
2022/10/25 08:55:25;;;;;;;4.27;2.00;;;;;;;26.36;35.81;99248.91;5115267;28;20208;-89
2022/10/25 08:57:51;;;;;;;4.50;1.50;;;;;;;26.45;34.95;99257.72;5115290;28;20203;-89
2022/10/25 09:00:21;;;;;;;9.07;2.63;;;;;;;26.60;35.26;99255.91;5115072;28;20168;-89
2022/10/25 09:02:59;;;;;;;11.38;2.78;;;;;;;26.72;35.60;99243.75;5115421;28;20186;-88
2022/10/25 09:05:39;;;;;;;11.73;2.33;;;;;;;26.65;34.89;99242.81;5115004;28;20167;-89
2022/10/25 09:08:19;;;;;;;12.25;1.95;;;;;;;26.72;35.61;99243.75;5113998;28;20597;-89
2022/10/25 09:11:15;;;;;;;10.35;3.17;;;;;;;27.00;34.43;99242.19;5113847;28;20587;-90
2022/10/25 09:13:56;;;;;;;12.40;2.25;;;;;;;27.19;34.22;99246.22;5114999;28;20255;-89
2022/10/25 09:16:41;;;;;;;6.65;2.38;;;;;;;27.63;34.06;99243.56;5114851;28;20156;-89
2022/10/25 09:20:02;;;;;;;8.73;1.92;;;;;;;28.02;32.80;99233.31;5114326;28;20286;-89
2022/10/25 09:22:33;;;;;;;9.25;2.53;;;;;;;28.29;31.83;99226.38;5102721;28;20227;-89
2022/10/25 09:25:10;;;;;;;8.20;1.73;;;;;;;28.46;32.15;99225.91;5114744;28;20164;-90
2022/10/25 09:27:43;;;;;;;11.23;2.40;;;;;;;28.41;32.94;99222.13;5114438;28;20183;-89
2022/10/25 09:30:10;;;;;;;4.60;2.00;;;;;;;28.36;32.90;99220.03;5114309;28;20191;-89
2022/10/25 09:32:43;;;;;;;7.20;2.40;;;;;;;28.52;31.69;99211.69;5096664;28;20624;-89
2022/10/25 09:35:27;;;;;;;6.00;2.35;;;;;;;28.62;31.86;99214.06;5114659;28;20252;-89
2022/10/25 09:38:00;;;;;;;8.32;2.60;;;;;;;28.87;31.68;99206.41;5114939;28;20201;-89
2022/10/25 09:40:34;;;;;;;11.48;2.30;;;;;;;28.99;32.73;99207.53;5115114;28;20163;-89
2022/10/25 09:43:07;;;;;;;7.68;2.17;;;;;;;29.02;31.22;99199.03;5114577;28;20156;-90
2022/10/25 09:45:49;;;;;;;12.05;2.70;;;;;;;28.91;31.53;99203.13;5114784;28;20238;-89
2022/10/25 09:48:24;;;;;;;10.23;2.47;;;;;;;28.92;31.17;99201.25;5114628;28;20182;-90
2022/10/25 09:50:59;;;;;;;3.90;2.10;;;;;;;29.12;30.88;99178.78;5114690;28;20194;-90
2022/10/25 09:53:25;;;;;;;6.85;2.20;;;;;;;29.03;30.78;99185.38;5094319;28;20160;-90
2022/10/25 09:55:52;;;;;;;9.02;2.40;;;;;;;29.07;31.04;99180.38;5094197;28;20175;-89
2022/10/25 09:58:30;;;;;;;10.52;2.60;;;;;;;29.16;31.49;99181.91;5093870;28;20229;-90
2022/10/25 10:01:03;;;;;;;5.70;2.10;;;;;;;29.29;30.68;99178.50;5094123;28;20177;-89
2022/10/25 10:03:32;;;;;;;7.80;2.13;;;;;;;29.33;31.02;99175.19;5094346;28;20188;-89
2022/10/25 10:06:25;;;;;;;11.63;2.03;;;;;;;29.47;31.04;99173.41;5093736;28;20172;-89
2022/10/25 10:08:59;;;;;;;10.32;2.58;;;;;;;29.52;30.31;99174.47;5094198;28;20192;-89
2022/10/25 10:11:25;;;;;;;10.65;2.75;;;;;;;29.62;29.94;99166.81;5094238;28;20152;-89
2022/10/25 10:13:53;;;;;;;6.35;1.90;;;;;;;29.73;30.54;99162.72;5094273;28;20518;-89
2022/10/25 10:16:30;;;;;;;8.55;1.80;;;;;;;29.70;30.00;99165.81;5093839;28;20179;-90
2022/10/25 10:19:23;;;;;;;13.50;2.50;;;;;;;29.72;29.57;99161.88;5094122;28;20160;-90
2022/10/25 10:22:01;;;;;;;6.43;2.38;;;;;;;29.76;30.17;99155.03;5075142;28;20164;-89
2022/10/25 10:24:31;;;;;;;8.93;2.30;;;;;;;29.63;29.93;99149.59;5093986;28;20160;-90
2022/10/25 10:26:59;;;;;;;5.28;2.17;;;;;;;29.52;30.00;99152.00;5093346;28;20201;-89
2022/10/25 10:29:36;;;;;;;9.85;2.88;;;;;;;29.42;30.59;99140.75;5093278;28;20226;-90
2022/10/25 10:32:05;;;;;;;9.18;2.60;;;;;;;29.42;30.46;99141.59;5093628;28;20149;-90
2022/10/25 10:34:33;;;;;;;10.07;3.20;;;;;;;29.59;30.39;99137.50;5093294;28;20195;-90
2022/10/25 10:37:04;;;;;;;9.65;2.13;;;;;;;29.44;30.53;99138.69;5093489;28;20195;-89
2022/10/25 10:39:30;;;;;;;6.97;2.08;;;;;;;29.48;30.09;99131.84;5093193;28;20241;-90
2022/10/25 10:42:03;;;;;;;7.15;2.67;;;;;;;29.87;30.58;99123.09;5093184;28;20180;-90
2022/10/25 10:44:35;;;;;;;7.47;2.47;;;;;;;29.97;30.14;99124.34;5093442;28;20166;-89
2022/10/25 10:47:10;;;;;;;5.68;2.10;;;;;;;29.70;29.91;99120.72;5093438;28;20239;-90
2022/10/25 10:49:39;;;;;;;9.43;2.17;;;;;;;29.77;29.72;99116.16;5093576;28;20196;-90
2022/10/25 10:52:23;;;;;;;10.02;1.98;;;;;;;29.96;29.78;99116.44;5084937;28;20206;-89
2022/10/25 10:54:49;;;;;;;9.43;2.78;;;;;;;30.14;29.47;99113.97;5113416;28;20156;-89
2022/10/25 10:57:31;;;;;;;9.27;2.00;;;;;;;30.07;29.31;99105.88;5095434;28;20637;-90
2022/10/25 10:59:57;;;;;;;7.63;2.70;;;;;;;30.11;29.01;99109.00;5113656;28;20276;-89
2022/10/25 11:02:38;;;;;;;9.00;2.58;;;;;;;30.15;29.30;99104.81;5095370;28;20175;-89
2022/10/25 11:05:27;;;;;;;10.25;2.88;;;;;;;30.42;29.02;99110.06;5113632;28;20167;-90
2022/10/25 11:07:55;;;;;;;9.80;2.28;;;;;;;30.28;29.50;99104.84;5113902;28;20225;-89
2022/10/25 11:10:24;;;;;;;16.55;3.05;;;;;;;30.01;29.11;99108.53;5113140;28;20187;-89
2022/10/25 11:13:19;;;;;;;12.75;2.60;;;;;;;29.60;29.37;99101.34;5113491;28;20209;-89
2022/10/25 11:16:09;;;;;;;11.00;2.38;;;;;;;29.88;29.45;99095.00;5102423;28;20201;-90
2022/10/25 11:18:50;;;;;;;10.75;2.60;;;;;;;29.98;30.08;99090.84;5113686;28;20629;-90
2022/10/25 11:21:42;;;;;;;6.95;2.28;;;;;;;30.11;28.85;99084.66;5113763;28;20678;-89
2022/10/25 11:24:37;;;;;;;4.78;2.28;;;;;;;30.14;29.33;99095.03;5095209;28;20175;-90
2022/10/25 11:27:20;;;;;;;5.72;2.03;;;;;;;30.46;29.37;99075.31;5065921;28;20660;-90
2022/10/25 11:30:07;;;;;;;7.20;2.28;;;;;;;30.55;28.91;99084.06;5113569;28;20187;-90
2022/10/25 11:33:03;;;;;;;7.82;2.83;;;;;;;30.43;28.62;99087.41;5113851;28;20152;-94
2022/10/25 11:35:49;;;;;;;8.25;2.15;;;;;;;30.41;28.96;99072.41;5117811;28;20152;-94
2022/10/25 11:38:33;;;;;;;6.68;1.98;;;;;;;30.78;29.14;99074.47;5099897;28;20605;-95
2022/10/25 11:41:16;;;;;;;6.03;2.47;;;;;;;31.13;28.03;99071.47;5099526;28;20167;-95
2022/10/25 11:44:19;;;;;;;6.57;2.22;;;;;;;31.48;28.26;99072.81;5099481;28;20164;-96